Parma, Arkansas
Current Conditions -  °F | °C
As of 3:35 AM on Monday 24 Nov 2014 (Local Time) from KCCA Reporting Station
Few Clouds Few Clouds  
Wind Chill:   Ceiling: Unl
Heat Index:   Visibility: 10mi
Dew Point:   Wind: 10mph
Humidity: 66%   Direction: 300°WNW
Pressure: 29.66"   Gusts: 18mph
Location:  35.659°N, 92.1866°W
Report Text: KCCA 240935Z AUTO 30009G16KT 030V040 10SM FEW090 08/02 A2966 RMK AO2
Loading
Personal Weather Stations






























Interactive Weather Map New forecast layout! Learn more

10-Day Weather Forecast

Advertisements
Track Severe Weather on mobile